sensor_id;sensor_type;location;lat;lon;timestamp;P1;durP1;ratioP1;P2;durP2;ratioP2
67757;SDS011;54562;47.620;18.786;2023-02-11T00:02:43;29.10;;;14.30;;
67757;SDS011;54562;47.620;18.786;2023-02-11T00:05:59;32.70;;;15.30;;
67757;SDS011;54562;47.620;18.786;2023-02-11T00:09:09;30.00;;;14.50;;
67757;SDS011;54562;47.620;18.786;2023-02-11T00:12:18;29.90;;;14.80;;
67757;SDS011;54562;47.620;18.786;2023-02-11T00:15:26;33.50;;;16.70;;
67757;SDS011;54562;47.620;18.786;2023-02-11T00:18:35;34.30;;;16.40;;
67757;SDS011;54562;47.620;18.786;2023-02-11T00:21:43;28.30;;;13.20;;
67757;SDS011;54562;47.620;18.786;2023-02-11T00:24:52;34.80;;;16.70;;
67757;SDS011;54562;47.620;18.786;2023-02-11T00:28:00;31.30;;;15.70;;
67757;SDS011;54562;47.620;18.786;2023-02-11T00:31:09;36.70;;;16.70;;
67757;SDS011;54562;47.620;18.786;2023-02-11T00:34:18;34.20;;;15.70;;
67757;SDS011;54562;47.620;18.786;2023-02-11T00:37:26;37.70;;;19.00;;
67757;SDS011;54562;47.620;18.786;2023-02-11T00:40:34;43.60;;;20.50;;
67757;SDS011;54562;47.620;18.786;2023-02-11T00:43:43;43.60;;;21.60;;
67757;SDS011;54562;47.620;18.786;2023-02-11T00:46:51;42.60;;;19.30;;
67757;SDS011;54562;47.620;18.786;2023-02-11T00:49:59;40.00;;;20.10;;
67757;SDS011;54562;47.620;18.786;2023-02-11T00:53:09;42.20;;;22.50;;
67757;SDS011;54562;47.620;18.786;2023-02-11T00:56:17;43.60;;;20.40;;
67757;SDS011;54562;47.620;18.786;2023-02-11T00:59:26;40.40;;;19.40;;
67757;SDS011;54562;47.620;18.786;2023-02-11T01:02:34;41.40;;;19.60;;
67757;SDS011;54562;47.620;18.786;2023-02-11T01:05:42;42.00;;;21.00;;
67757;SDS011;54562;47.620;18.786;2023-02-11T01:08:50;40.40;;;19.60;;
67757;SDS011;54562;47.620;18.786;2023-02-11T01:11:58;37.80;;;19.00;;
67757;SDS011;54562;47.620;18.786;2023-02-11T01:15:10;39.10;;;19.10;;
67757;SDS011;54562;47.620;18.786;2023-02-11T01:18:22;35.00;;;16.90;;
67757;SDS011;54562;47.620;18.786;2023-02-11T01:21:30;31.50;;;17.20;;
67757;SDS011;54562;47.620;18.786;2023-02-11T01:24:38;36.80;;;18.50;;
67757;SDS011;54562;47.620;18.786;2023-02-11T01:27:46;35.60;;;17.90;;
67757;SDS011;54562;47.620;18.786;2023-02-11T01:30:55;41.30;;;19.50;;
67757;SDS011;54562;47.620;18.786;2023-02-11T01:34:05;38.10;;;18.50;;
67757;SDS011;54562;47.620;18.786;2023-02-11T01:37:14;39.00;;;19.30;;
67757;SDS011;54562;47.620;18.786;2023-02-11T01:40:22;40.90;;;20.10;;
67757;SDS011;54562;47.620;18.786;2023-02-11T01:43:33;44.70;;;21.10;;
67757;SDS011;54562;47.620;18.786;2023-02-11T01:46:42;43.60;;;20.70;;
67757;SDS011;54562;47.620;18.786;2023-02-11T01:49:54;44.40;;;21.60;;
67757;SDS011;54562;47.620;18.786;2023-02-11T01:53:07;39.30;;;20.10;;
67757;SDS011;54562;47.620;18.786;2023-02-11T01:56:30;42.20;;;20.60;;
67757;SDS011;54562;47.620;18.786;2023-02-11T02:00:04;39.70;;;19.50;;
67757;SDS011;54562;47.620;18.786;2023-02-11T02:03:18;43.60;;;21.00;;
67757;SDS011;54562;47.620;18.786;2023-02-11T02:06:32;44.00;;;20.50;;
67757;SDS011;54562;47.620;18.786;2023-02-11T02:09:45;37.70;;;18.90;;
67757;SDS011;54562;47.620;18.786;2023-02-11T02:12:58;37.90;;;18.20;;
67757;SDS011;54562;47.620;18.786;2023-02-11T02:16:10;33.90;;;15.80;;
67757;SDS011;54562;47.620;18.786;2023-02-11T02:19:50;34.30;;;16.80;;
67757;SDS011;54562;47.620;18.786;2023-02-11T02:27:22;31.80;;;16.00;;
67757;SDS011;54562;47.620;18.786;2023-02-11T02:31:12;34.90;;;17.20;;
67757;SDS011;54562;47.620;18.786;2023-02-11T02:34:38;29.90;;;14.60;;
67757;SDS011;54562;47.620;18.786;2023-02-11T02:37:58;32.80;;;16.30;;
67757;SDS011;54562;47.620;18.786;2023-02-11T02:41:14;32.70;;;14.70;;
67757;SDS011;54562;47.620;18.786;2023-02-11T02:44:24;32.90;;;15.70;;
67757;SDS011;54562;47.620;18.786;2023-02-11T02:47:33;35.60;;;16.70;;
67757;SDS011;54562;47.620;18.786;2023-02-11T02:50:41;31.80;;;16.30;;
67757;SDS011;54562;47.620;18.786;2023-02-11T02:53:57;31.20;;;15.70;;
67757;SDS011;54562;47.620;18.786;2023-02-11T02:57:26;31.20;;;15.50;;
67757;SDS011;54562;47.620;18.786;2023-02-11T03:00:42;32.70;;;15.90;;
67757;SDS011;54562;47.620;18.786;2023-02-11T03:04:10;31.50;;;13.90;;
67757;SDS011;54562;47.620;18.786;2023-02-11T03:10:39;26.20;;;12.20;;
67757;SDS011;54562;47.620;18.786;2023-02-11T03:13:51;31.50;;;14.70;;
67757;SDS011;54562;47.620;18.786;2023-02-11T03:17:02;28.90;;;13.90;;
67757;SDS011;54562;47.620;18.786;2023-02-11T03:20:16;30.10;;;15.80;;
67757;SDS011;54562;47.620;18.786;2023-02-11T03:23:29;28.80;;;14.10;;
67757;SDS011;54562;47.620;18.786;2023-02-11T03:26:45;30.80;;;14.50;;
67757;SDS011;54562;47.620;18.786;2023-02-11T03:30:00;30.70;;;15.00;;
67757;SDS011;54562;47.620;18.786;2023-02-11T03:33:20;32.10;;;14.60;;
67757;SDS011;54562;47.620;18.786;2023-02-11T03:36:38;27.20;;;14.10;;
67757;SDS011;54562;47.620;18.786;2023-02-11T03:43:07;26.10;;;11.80;;
67757;SDS011;54562;47.620;18.786;2023-02-11T03:46:23;27.10;;;13.40;;
67757;SDS011;54562;47.620;18.786;2023-02-11T03:49:37;27.70;;;13.80;;
67757;SDS011;54562;47.620;18.786;2023-02-11T03:52:48;29.80;;;14.40;;
67757;SDS011;54562;47.620;18.786;2023-02-11T03:55:59;29.10;;;14.40;;
67757;SDS011;54562;47.620;18.786;2023-02-11T03:59:10;28.40;;;13.70;;
67757;SDS011;54562;47.620;18.786;2023-02-11T04:02:18;25.20;;;13.40;;
67757;SDS011;54562;47.620;18.786;2023-02-11T04:05:27;26.00;;;14.30;;
67757;SDS011;54562;47.620;18.786;2023-02-11T04:08:35;31.60;;;15.10;;
67757;SDS011;54562;47.620;18.786;2023-02-11T04:11:43;28.70;;;13.50;;
67757;SDS011;54562;47.620;18.786;2023-02-11T04:14:55;28.70;;;14.70;;
67757;SDS011;54562;47.620;18.786;2023-02-11T04:18:03;29.70;;;13.90;;
67757;SDS011;54562;47.620;18.786;2023-02-11T04:21:12;27.40;;;14.40;;
67757;SDS011;54562;47.620;18.786;2023-02-11T04:24:20;31.40;;;14.90;;
67757;SDS011;54562;47.620;18.786;2023-02-11T04:27:28;32.00;;;14.80;;
67757;SDS011;54562;47.620;18.786;2023-02-11T04:30:36;28.70;;;14.40;;
67757;SDS011;54562;47.620;18.786;2023-02-11T04:33:44;26.90;;;14.40;;
67757;SDS011;54562;47.620;18.786;2023-02-11T04:36:52;26.10;;;13.70;;
67757;SDS011;54562;47.620;18.786;2023-02-11T04:40:00;30.60;;;14.00;;
67757;SDS011;54562;47.620;18.786;2023-02-11T04:43:09;31.20;;;15.30;;
67757;SDS011;54562;47.620;18.786;2023-02-11T04:46:17;32.20;;;15.20;;
67757;SDS011;54562;47.620;18.786;2023-02-11T04:49:25;29.50;;;14.90;;
67757;SDS011;54562;47.620;18.786;2023-02-11T04:52:33;30.50;;;15.20;;
67757;SDS011;54562;47.620;18.786;2023-02-11T04:55:41;28.50;;;14.70;;
67757;SDS011;54562;47.620;18.786;2023-02-11T04:58:49;34.20;;;15.20;;
67757;SDS011;54562;47.620;18.786;2023-02-11T05:01:57;31.00;;;14.80;;
67757;SDS011;54562;47.620;18.786;2023-02-11T05:05:06;30.60;;;14.90;;
67757;SDS011;54562;47.620;18.786;2023-02-11T05:08:14;28.90;;;15.90;;
67757;SDS011;54562;47.620;18.786;2023-02-11T05:11:24;29.30;;;14.60;;
67757;SDS011;54562;47.620;18.786;2023-02-11T05:17:38;26.00;;;12.90;;
67757;SDS011;54562;47.620;18.786;2023-02-11T05:20:46;28.80;;;13.60;;
67757;SDS011;54562;47.620;18.786;2023-02-11T05:23:54;32.20;;;14.90;;
67757;SDS011;54562;47.620;18.786;2023-02-11T05:27:02;28.40;;;14.10;;
67757;SDS011;54562;47.620;18.786;2023-02-11T05:30:11;28.30;;;14.10;;
67757;SDS011;54562;47.620;18.786;2023-02-11T05:33:20;27.50;;;14.20;;
67757;SDS011;54562;47.620;18.786;2023-02-11T05:36:28;30.40;;;15.30;;
67757;SDS011;54562;47.620;18.786;2023-02-11T05:39:37;31.10;;;15.40;;
67757;SDS011;54562;47.620;18.786;2023-02-11T05:42:45;34.00;;;15.70;;
67757;SDS011;54562;47.620;18.786;2023-02-11T05:45:53;30.00;;;15.20;;
67757;SDS011;54562;47.620;18.786;2023-02-11T05:49:02;30.70;;;15.60;;
67757;SDS011;54562;47.620;18.786;2023-02-11T05:52:10;29.80;;;15.50;;
67757;SDS011;54562;47.620;18.786;2023-02-11T05:55:18;31.20;;;15.70;;
67757;SDS011;54562;47.620;18.786;2023-02-11T05:58:25;30.80;;;15.30;;
67757;SDS011;54562;47.620;18.786;2023-02-11T06:01:35;28.60;;;14.40;;
67757;SDS011;54562;47.620;18.786;2023-02-11T06:04:43;27.90;;;14.90;;
67757;SDS011;54562;47.620;18.786;2023-02-11T06:07:51;30.40;;;15.10;;
67757;SDS011;54562;47.620;18.786;2023-02-11T06:10:59;30.90;;;16.00;;
67757;SDS011;54562;47.620;18.786;2023-02-11T06:14:07;31.60;;;14.90;;
67757;SDS011;54562;47.620;18.786;2023-02-11T06:17:16;27.90;;;14.20;;
67757;SDS011;54562;47.620;18.786;2023-02-11T06:20:24;32.10;;;16.60;;
67757;SDS011;54562;47.620;18.786;2023-02-11T06:23:32;40.00;;;17.80;;
67757;SDS011;54562;47.620;18.786;2023-02-11T06:26:40;44.70;;;21.80;;
67757;SDS011;54562;47.620;18.786;2023-02-11T06:29:48;44.80;;;22.00;;
67757;SDS011;54562;47.620;18.786;2023-02-11T06:32:57;43.00;;;20.70;;
67757;SDS011;54562;47.620;18.786;2023-02-11T06:36:13;35.40;;;16.20;;
67757;SDS011;54562;47.620;18.786;2023-02-11T06:39:23;29.80;;;14.30;;
67757;SDS011;54562;47.620;18.786;2023-02-11T06:42:31;27.70;;;14.50;;
67757;SDS011;54562;47.620;18.786;2023-02-11T06:45:42;26.30;;;13.40;;
67757;SDS011;54562;47.620;18.786;2023-02-11T06:48:50;26.80;;;12.30;;
67757;SDS011;54562;47.620;18.786;2023-02-11T06:51:58;27.40;;;13.60;;
67757;SDS011;54562;47.620;18.786;2023-02-11T06:55:07;27.80;;;13.40;;
67757;SDS011;54562;47.620;18.786;2023-02-11T06:58:16;31.10;;;14.80;;
67757;SDS011;54562;47.620;18.786;2023-02-11T07:01:25;34.20;;;15.90;;
67757;SDS011;54562;47.620;18.786;2023-02-11T07:04:34;24.00;;;11.80;;
67757;SDS011;54562;47.620;18.786;2023-02-11T07:07:42;34.40;;;15.30;;
67757;SDS011;54562;47.620;18.786;2023-02-11T07:10:50;26.50;;;13.00;;
67757;SDS011;54562;47.620;18.786;2023-02-11T07:14:01;31.80;;;13.80;;
67757;SDS011;54562;47.620;18.786;2023-02-11T07:17:12;29.40;;;14.70;;
67757;SDS011;54562;47.620;18.786;2023-02-11T07:20:20;30.40;;;14.50;;
67757;SDS011;54562;47.620;18.786;2023-02-11T07:23:29;33.40;;;15.10;;
67757;SDS011;54562;47.620;18.786;2023-02-11T07:26:37;28.90;;;14.00;;
67757;SDS011;54562;47.620;18.786;2023-02-11T07:29:46;27.80;;;14.50;;
67757;SDS011;54562;47.620;18.786;2023-02-11T07:32:54;28.50;;;14.40;;
67757;SDS011;54562;47.620;18.786;2023-02-11T07:36:05;24.70;;;12.90;;
67757;SDS011;54562;47.620;18.786;2023-02-11T07:39:16;27.50;;;12.10;;
67757;SDS011;54562;47.620;18.786;2023-02-11T07:42:26;28.80;;;14.10;;
67757;SDS011;54562;47.620;18.786;2023-02-11T07:45:34;27.20;;;12.70;;
67757;SDS011;54562;47.620;18.786;2023-02-11T07:48:45;30.30;;;14.90;;
67757;SDS011;54562;47.620;18.786;2023-02-11T07:51:54;31.20;;;14.80;;
67757;SDS011;54562;47.620;18.786;2023-02-11T07:55:02;26.30;;;12.50;;
67757;SDS011;54562;47.620;18.786;2023-02-11T07:58:11;27.80;;;14.30;;
67757;SDS011;54562;47.620;18.786;2023-02-11T08:01:21;29.20;;;13.90;;
67757;SDS011;54562;47.620;18.786;2023-02-11T08:04:32;29.70;;;14.80;;
67757;SDS011;54562;47.620;18.786;2023-02-11T08:07:40;24.40;;;12.90;;
67757;SDS011;54562;47.620;18.786;2023-02-11T08:10:49;26.30;;;13.20;;
67757;SDS011;54562;47.620;18.786;2023-02-11T08:13:57;31.50;;;15.90;;
67757;SDS011;54562;47.620;18.786;2023-02-11T08:17:05;28.90;;;14.60;;
67757;SDS011;54562;47.620;18.786;2023-02-11T08:20:14;33.10;;;16.30;;
67757;SDS011;54562;47.620;18.786;2023-02-11T08:23:22;33.80;;;16.20;;
67757;SDS011;54562;47.620;18.786;2023-02-11T08:26:31;31.20;;;15.30;;
67757;SDS011;54562;47.620;18.786;2023-02-11T08:29:40;35.90;;;17.20;;
67757;SDS011;54562;47.620;18.786;2023-02-11T08:32:48;31.20;;;13.80;;
67757;SDS011;54562;47.620;18.786;2023-02-11T08:35:57;31.40;;;14.90;;
67757;SDS011;54562;47.620;18.786;2023-02-11T08:39:07;33.90;;;16.70;;
67757;SDS011;54562;47.620;18.786;2023-02-11T08:42:24;32.90;;;16.60;;
67757;SDS011;54562;47.620;18.786;2023-02-11T08:45:32;31.60;;;14.90;;
67757;SDS011;54562;47.620;18.786;2023-02-11T08:48:41;32.70;;;15.60;;
67757;SDS011;54562;47.620;18.786;2023-02-11T08:51:49;34.30;;;18.20;;
67757;SDS011;54562;47.620;18.786;2023-02-11T08:54:59;33.60;;;17.60;;
67757;SDS011;54562;47.620;18.786;2023-02-11T08:58:07;33.00;;;17.10;;
67757;SDS011;54562;47.620;18.786;2023-02-11T09:01:17;36.60;;;18.20;;
67757;SDS011;54562;47.620;18.786;2023-02-11T09:04:27;30.50;;;16.10;;
67757;SDS011;54562;47.620;18.786;2023-02-11T09:07:35;31.40;;;17.10;;
67757;SDS011;54562;47.620;18.786;2023-02-11T09:10:44;35.10;;;15.90;;
67757;SDS011;54562;47.620;18.786;2023-02-11T09:13:53;32.00;;;16.70;;
67757;SDS011;54562;47.620;18.786;2023-02-11T09:17:01;37.60;;;18.40;;
67757;SDS011;54562;47.620;18.786;2023-02-11T09:23:26;33.00;;;16.90;;
67757;SDS011;54562;47.620;18.786;2023-02-11T09:26:35;32.80;;;18.10;;
67757;SDS011;54562;47.620;18.786;2023-02-11T09:29:47;34.10;;;17.20;;
67757;SDS011;54562;47.620;18.786;2023-02-11T09:32:56;34.40;;;18.90;;
67757;SDS011;54562;47.620;18.786;2023-02-11T09:36:05;32.50;;;18.20;;
67757;SDS011;54562;47.620;18.786;2023-02-11T09:39:19;37.30;;;19.50;;
67757;SDS011;54562;47.620;18.786;2023-02-11T09:42:39;37.10;;;19.00;;
67757;SDS011;54562;47.620;18.786;2023-02-11T09:45:52;35.20;;;18.20;;
67757;SDS011;54562;47.620;18.786;2023-02-11T09:49:02;35.10;;;18.70;;
67757;SDS011;54562;47.620;18.786;2023-02-11T09:52:20;37.20;;;19.50;;
67757;SDS011;54562;47.620;18.786;2023-02-11T09:55:44;36.10;;;18.60;;
67757;SDS011;54562;47.620;18.786;2023-02-11T09:58:53;37.80;;;20.20;;
67757;SDS011;54562;47.620;18.786;2023-02-11T10:02:05;37.00;;;18.70;;
67757;SDS011;54562;47.620;18.786;2023-02-11T10:05:32;40.70;;;19.70;;
67757;SDS011;54562;47.620;18.786;2023-02-11T10:08:58;35.00;;;19.20;;
67757;SDS011;54562;47.620;18.786;2023-02-11T10:12:21;36.20;;;19.20;;
67757;SDS011;54562;47.620;18.786;2023-02-11T10:15:43;37.00;;;17.90;;
67757;SDS011;54562;47.620;18.786;2023-02-11T10:19:11;36.10;;;19.80;;
67757;SDS011;54562;47.620;18.786;2023-02-11T10:22:31;36.10;;;19.60;;
67757;SDS011;54562;47.620;18.786;2023-02-11T10:25:46;38.90;;;19.80;;
67757;SDS011;54562;47.620;18.786;2023-02-11T10:29:01;43.20;;;20.10;;
67757;SDS011;54562;47.620;18.786;2023-02-11T10:32:26;36.90;;;18.00;;
67757;SDS011;54562;47.620;18.786;2023-02-11T10:35:40;43.10;;;20.10;;
67757;SDS011;54562;47.620;18.786;2023-02-11T10:38:50;36.10;;;19.40;;
67757;SDS011;54562;47.620;18.786;2023-02-11T10:42:01;39.80;;;20.00;;
67757;SDS011;54562;47.620;18.786;2023-02-11T10:45:30;35.50;;;18.50;;
67757;SDS011;54562;47.620;18.786;2023-02-11T10:48:43;33.40;;;16.90;;
67757;SDS011;54562;47.620;18.786;2023-02-11T10:52:13;33.50;;;17.90;;
67757;SDS011;54562;47.620;18.786;2023-02-11T10:55:27;34.20;;;17.70;;
67757;SDS011;54562;47.620;18.786;2023-02-11T10:58:42;32.90;;;17.60;;
67757;SDS011;54562;47.620;18.786;2023-02-11T11:01:55;32.00;;;17.90;;
67757;SDS011;54562;47.620;18.786;2023-02-11T11:05:13;41.00;;;20.10;;
67757;SDS011;54562;47.620;18.786;2023-02-11T11:08:39;36.10;;;19.70;;
67757;SDS011;54562;47.620;18.786;2023-02-11T11:11:53;32.90;;;17.50;;
67757;SDS011;54562;47.620;18.786;2023-02-11T11:15:15;33.80;;;18.40;;
67757;SDS011;54562;47.620;18.786;2023-02-11T11:18:25;43.10;;;18.50;;
67757;SDS011;54562;47.620;18.786;2023-02-11T11:21:39;36.20;;;18.60;;
67757;SDS011;54562;47.620;18.786;2023-02-11T11:24:49;33.70;;;17.40;;
67757;SDS011;54562;47.620;18.786;2023-02-11T11:28:01;33.20;;;16.40;;
67757;SDS011;54562;47.620;18.786;2023-02-11T11:31:16;46.00;;;27.00;;
67757;SDS011;54562;47.620;18.786;2023-02-11T11:34:30;29.80;;;15.60;;
67757;SDS011;54562;47.620;18.786;2023-02-11T11:37:42;31.60;;;17.10;;
67757;SDS011;54562;47.620;18.786;2023-02-11T11:41:15;31.70;;;15.30;;
67757;SDS011;54562;47.620;18.786;2023-02-11T11:44:27;36.50;;;13.80;;
67757;SDS011;54562;47.620;18.786;2023-02-11T11:47:41;27.00;;;14.20;;
67757;SDS011;54562;47.620;18.786;2023-02-11T11:50:55;26.50;;;13.20;;
67757;SDS011;54562;47.620;18.786;2023-02-11T11:54:10;27.90;;;13.20;;
67757;SDS011;54562;47.620;18.786;2023-02-11T11:57:26;32.50;;;13.70;;
67757;SDS011;54562;47.620;18.786;2023-02-11T12:00:37;29.50;;;14.20;;
67757;SDS011;54562;47.620;18.786;2023-02-11T12:04:20;26.90;;;13.10;;
67757;SDS011;54562;47.620;18.786;2023-02-11T12:07:54;29.70;;;14.50;;
67757;SDS011;54562;47.620;18.786;2023-02-11T12:11:13;27.80;;;13.70;;
67757;SDS011;54562;47.620;18.786;2023-02-11T12:14:35;24.30;;;11.90;;
67757;SDS011;54562;47.620;18.786;2023-02-11T12:18:07;25.80;;;11.60;;
67757;SDS011;54562;47.620;18.786;2023-02-11T12:21:36;24.70;;;11.00;;
67757;SDS011;54562;47.620;18.786;2023-02-11T12:25:06;20.70;;;10.50;;
67757;SDS011;54562;47.620;18.786;2023-02-11T12:28:34;24.30;;;11.60;;
67757;SDS011;54562;47.620;18.786;2023-02-11T12:31:56;23.10;;;11.80;;
67757;SDS011;54562;47.620;18.786;2023-02-11T12:39:16;20.90;;;10.50;;
67757;SDS011;54562;47.620;18.786;2023-02-11T12:42:53;21.20;;;10.40;;
67757;SDS011;54562;47.620;18.786;2023-02-11T12:46:39;20.00;;;9.70;;
67757;SDS011;54562;47.620;18.786;2023-02-11T12:50:06;20.50;;;10.80;;
67757;SDS011;54562;47.620;18.786;2023-02-11T12:53:36;21.00;;;10.30;;
67757;SDS011;54562;47.620;18.786;2023-02-11T12:56:59;20.90;;;10.80;;
67757;SDS011;54562;47.620;18.786;2023-02-11T13:00:17;20.60;;;11.60;;
67757;SDS011;54562;47.620;18.786;2023-02-11T13:03:32;21.70;;;11.00;;
67757;SDS011;54562;47.620;18.786;2023-02-11T13:06:48;19.00;;;10.60;;
67757;SDS011;54562;47.620;18.786;2023-02-11T13:10:04;22.50;;;10.90;;
67757;SDS011;54562;47.620;18.786;2023-02-11T13:13:24;22.30;;;11.20;;
67757;SDS011;54562;47.620;18.786;2023-02-11T13:16:37;21.30;;;10.80;;
67757;SDS011;54562;47.620;18.786;2023-02-11T13:19:51;22.80;;;11.00;;
67757;SDS011;54562;47.620;18.786;2023-02-11T13:23:12;21.20;;;10.70;;
67757;SDS011;54562;47.620;18.786;2023-02-11T13:26:30;22.90;;;10.20;;
67757;SDS011;54562;47.620;18.786;2023-02-11T13:33:39;21.20;;;10.20;;
67757;SDS011;54562;47.620;18.786;2023-02-11T13:36:54;21.50;;;10.80;;
67757;SDS011;54562;47.620;18.786;2023-02-11T13:40:06;24.80;;;11.00;;
67757;SDS011;54562;47.620;18.786;2023-02-11T13:43:29;24.00;;;11.80;;
67757;SDS011;54562;47.620;18.786;2023-02-11T13:46:51;25.00;;;11.20;;
67757;SDS011;54562;47.620;18.786;2023-02-11T13:50:07;26.10;;;11.10;;
67757;SDS011;54562;47.620;18.786;2023-02-11T13:53:27;25.80;;;12.20;;
67757;SDS011;54562;47.620;18.786;2023-02-11T14:00:48;23.50;;;10.20;;
67757;SDS011;54562;47.620;18.786;2023-02-11T14:04:19;20.90;;;10.80;;
67757;SDS011;54562;47.620;18.786;2023-02-11T14:08:12;25.60;;;12.70;;
67757;SDS011;54562;47.620;18.786;2023-02-11T14:11:50;24.20;;;11.80;;
67757;SDS011;54562;47.620;18.786;2023-02-11T14:19:01;23.50;;;10.90;;
67757;SDS011;54562;47.620;18.786;2023-02-11T14:22:15;24.00;;;12.00;;
67757;SDS011;54562;47.620;18.786;2023-02-11T14:25:27;23.40;;;11.50;;
67757;SDS011;54562;47.620;18.786;2023-02-11T14:28:36;24.30;;;11.90;;
67757;SDS011;54562;47.620;18.786;2023-02-11T14:31:56;22.60;;;10.70;;
67757;SDS011;54562;47.620;18.786;2023-02-11T14:35:13;26.20;;;11.80;;
67757;SDS011;54562;47.620;18.786;2023-02-11T14:38:33;25.50;;;12.70;;
67757;SDS011;54562;47.620;18.786;2023-02-11T14:41:50;26.20;;;12.20;;
67757;SDS011;54562;47.620;18.786;2023-02-11T14:45:03;24.40;;;12.00;;
67757;SDS011;54562;47.620;18.786;2023-02-11T14:48:17;24.70;;;12.30;;
67757;SDS011;54562;47.620;18.786;2023-02-11T14:51:29;24.70;;;11.70;;
67757;SDS011;54562;47.620;18.786;2023-02-11T14:54:42;24.30;;;13.20;;
67757;SDS011;54562;47.620;18.786;2023-02-11T14:58:07;24.40;;;12.90;;
67757;SDS011;54562;47.620;18.786;2023-02-11T15:01:31;23.50;;;12.10;;
67757;SDS011;54562;47.620;18.786;2023-02-11T15:07:50;30.70;;;15.30;;
67757;SDS011;54562;47.620;18.786;2023-02-11T15:11:02;25.70;;;13.70;;
67757;SDS011;54562;47.620;18.786;2023-02-11T15:14:27;25.50;;;12.40;;
67757;SDS011;54562;47.620;18.786;2023-02-11T15:17:38;26.80;;;13.30;;
67757;SDS011;54562;47.620;18.786;2023-02-11T15:20:48;26.30;;;12.70;;
67757;SDS011;54562;47.620;18.786;2023-02-11T15:24:00;25.00;;;12.70;;
67757;SDS011;54562;47.620;18.786;2023-02-11T15:27:13;26.80;;;14.10;;
67757;SDS011;54562;47.620;18.786;2023-02-11T15:30:27;27.10;;;12.80;;
67757;SDS011;54562;47.620;18.786;2023-02-11T15:33:38;25.50;;;13.00;;
67757;SDS011;54562;47.620;18.786;2023-02-11T15:36:47;26.70;;;13.40;;
67757;SDS011;54562;47.620;18.786;2023-02-11T15:40:06;28.70;;;13.10;;
67757;SDS011;54562;47.620;18.786;2023-02-11T15:43:16;27.90;;;12.60;;
67757;SDS011;54562;47.620;18.786;2023-02-11T15:46:36;27.10;;;13.50;;
67757;SDS011;54562;47.620;18.786;2023-02-11T15:49:46;27.30;;;13.80;;
67757;SDS011;54562;47.620;18.786;2023-02-11T15:52:59;24.30;;;12.80;;
67757;SDS011;54562;47.620;18.786;2023-02-11T15:56:20;26.10;;;12.30;;
67757;SDS011;54562;47.620;18.786;2023-02-11T15:59:32;25.00;;;12.90;;
67757;SDS011;54562;47.620;18.786;2023-02-11T16:02:45;25.30;;;11.90;;
67757;SDS011;54562;47.620;18.786;2023-02-11T16:05:55;24.40;;;12.00;;
67757;SDS011;54562;47.620;18.786;2023-02-11T16:09:31;25.80;;;11.90;;
67757;SDS011;54562;47.620;18.786;2023-02-11T16:12:48;24.90;;;11.80;;
67757;SDS011;54562;47.620;18.786;2023-02-11T16:15:59;24.10;;;12.40;;
67757;SDS011;54562;47.620;18.786;2023-02-11T16:19:15;23.10;;;11.90;;
67757;SDS011;54562;47.620;18.786;2023-02-11T16:22:30;24.60;;;12.20;;
67757;SDS011;54562;47.620;18.786;2023-02-11T16:25:42;26.40;;;13.70;;
67757;SDS011;54562;47.620;18.786;2023-02-11T16:28:50;24.60;;;12.60;;
67757;SDS011;54562;47.620;18.786;2023-02-11T16:32:08;24.30;;;12.90;;
67757;SDS011;54562;47.620;18.786;2023-02-11T16:35:21;29.20;;;14.90;;
67757;SDS011;54562;47.620;18.786;2023-02-11T16:38:30;33.30;;;16.20;;
67757;SDS011;54562;47.620;18.786;2023-02-11T16:41:38;40.40;;;18.70;;
67757;SDS011;54562;47.620;18.786;2023-02-11T16:44:47;34.60;;;17.50;;
67757;SDS011;54562;47.620;18.786;2023-02-11T16:47:56;41.30;;;18.20;;
67757;SDS011;54562;47.620;18.786;2023-02-11T16:51:06;39.00;;;20.20;;
67757;SDS011;54562;47.620;18.786;2023-02-11T16:54:18;42.80;;;21.30;;
67757;SDS011;54562;47.620;18.786;2023-02-11T16:57:26;33.50;;;16.10;;
67757;SDS011;54562;47.620;18.786;2023-02-11T17:00:34;29.20;;;14.70;;
67757;SDS011;54562;47.620;18.786;2023-02-11T17:03:43;27.60;;;14.50;;
67757;SDS011;54562;47.620;18.786;2023-02-11T17:06:53;29.80;;;14.60;;
67757;SDS011;54562;47.620;18.786;2023-02-11T17:10:02;27.90;;;14.10;;
67757;SDS011;54562;47.620;18.786;2023-02-11T17:13:11;25.70;;;12.80;;
67757;SDS011;54562;47.620;18.786;2023-02-11T17:16:21;24.70;;;13.60;;
67757;SDS011;54562;47.620;18.786;2023-02-11T17:19:31;27.10;;;13.50;;
67757;SDS011;54562;47.620;18.786;2023-02-11T17:22:39;22.70;;;12.00;;
67757;SDS011;54562;47.620;18.786;2023-02-11T17:25:55;26.00;;;13.80;;
67757;SDS011;54562;47.620;18.786;2023-02-11T17:29:05;24.70;;;13.70;;
67757;SDS011;54562;47.620;18.786;2023-02-11T17:32:14;30.20;;;15.40;;
67757;SDS011;54562;47.620;18.786;2023-02-11T17:35:23;44.00;;;21.20;;
67757;SDS011;54562;47.620;18.786;2023-02-11T17:38:31;34.40;;;16.90;;
67757;SDS011;54562;47.620;18.786;2023-02-11T17:41:39;28.00;;;15.70;;
67757;SDS011;54562;47.620;18.786;2023-02-11T17:44:47;29.30;;;15.10;;
67757;SDS011;54562;47.620;18.786;2023-02-11T17:47:55;29.60;;;14.80;;
67757;SDS011;54562;47.620;18.786;2023-02-11T17:51:04;27.70;;;14.10;;
67757;SDS011;54562;47.620;18.786;2023-02-11T17:54:25;25.70;;;14.20;;
67757;SDS011;54562;47.620;18.786;2023-02-11T17:57:34;27.80;;;14.80;;
67757;SDS011;54562;47.620;18.786;2023-02-11T18:00:42;28.60;;;14.80;;
67757;SDS011;54562;47.620;18.786;2023-02-11T18:03:50;29.10;;;14.50;;
67757;SDS011;54562;47.620;18.786;2023-02-11T18:06:59;29.40;;;15.20;;
67757;SDS011;54562;47.620;18.786;2023-02-11T18:10:09;28.40;;;14.50;;
67757;SDS011;54562;47.620;18.786;2023-02-11T18:13:17;28.50;;;14.80;;
67757;SDS011;54562;47.620;18.786;2023-02-11T18:16:26;31.40;;;15.00;;
67757;SDS011;54562;47.620;18.786;2023-02-11T18:19:35;31.60;;;15.70;;
67757;SDS011;54562;47.620;18.786;2023-02-11T18:22:43;33.40;;;15.90;;
67757;SDS011;54562;47.620;18.786;2023-02-11T18:25:51;32.40;;;15.00;;
67757;SDS011;54562;47.620;18.786;2023-02-11T18:28:59;26.60;;;13.60;;
67757;SDS011;54562;47.620;18.786;2023-02-11T18:32:08;24.50;;;12.10;;
67757;SDS011;54562;47.620;18.786;2023-02-11T18:35:17;27.60;;;14.20;;
67757;SDS011;54562;47.620;18.786;2023-02-11T18:38:25;30.50;;;14.60;;
67757;SDS011;54562;47.620;18.786;2023-02-11T18:41:33;25.70;;;12.40;;
67757;SDS011;54562;47.620;18.786;2023-02-11T18:44:44;26.30;;;12.10;;
67757;SDS011;54562;47.620;18.786;2023-02-11T18:47:52;26.40;;;12.60;;
67757;SDS011;54562;47.620;18.786;2023-02-11T18:51:00;27.80;;;13.80;;
67757;SDS011;54562;47.620;18.786;2023-02-11T18:54:13;26.80;;;13.10;;
67757;SDS011;54562;47.620;18.786;2023-02-11T18:57:21;21.60;;;11.20;;
67757;SDS011;54562;47.620;18.786;2023-02-11T19:00:30;19.60;;;10.60;;
67757;SDS011;54562;47.620;18.786;2023-02-11T19:03:39;23.90;;;11.30;;
67757;SDS011;54562;47.620;18.786;2023-02-11T19:06:49;25.60;;;11.90;;
67757;SDS011;54562;47.620;18.786;2023-02-11T19:09:57;22.90;;;12.10;;